Austin, Nevada
Current Conditions -  °F | °C
As of 2:56 AM on Wednesday 22 Oct 2014 (Local Time) from KNFL Reporting Station
Clear Clear  
Wind Chill: 40°   Ceiling: Unl
Heat Index: 40°   Visibility: 10mi
Dew Point: 21°   Wind: 3mph
Humidity: 47%   Direction: 180°S
Pressure: 30.1"   Gusts: NA
Location:  39.49°N, 117.07°W
Report Text: KNFL 220956Z AUTO 18003KT 10SM CLR 04/M06 A3010 RMK AO2 SLP160 T00441061
Loading
Personal Weather Stations






























Interactive Weather Map
Tropical Storm Tracking
New forecast layout! Learn more

10-Day Weather Forecast

Advertisements
Track Severe Weather on mobile